sensor_id;sensor_type;location;lat;lon;timestamp;temperature;humidity
9837;DHT22;4957;51.412;6.724;2023-04-01T00:00:19;11.40;99.90
9837;DHT22;4957;51.412;6.724;2023-04-01T00:02:45;11.40;99.90
9837;DHT22;4957;51.412;6.724;2023-04-01T00:05:12;11.30;99.90
9837;DHT22;4957;51.412;6.724;2023-04-01T00:07:39;11.30;99.90
9837;DHT22;4957;51.412;6.724;2023-04-01T00:10:07;11.30;99.90
9837;DHT22;4957;51.412;6.724;2023-04-01T00:12:34;11.30;99.90
9837;DHT22;4957;51.412;6.724;2023-04-01T00:15:00;11.30;99.90
9837;DHT22;4957;51.412;6.724;2023-04-01T00:17:26;11.30;99.90
9837;DHT22;4957;51.412;6.724;2023-04-01T00:19:55;11.30;99.90
9837;DHT22;4957;51.412;6.724;2023-04-01T00:22:22;11.20;99.90
9837;DHT22;4957;51.412;6.724;2023-04-01T00:24:47;11.30;99.90
9837;DHT22;4957;51.412;6.724;2023-04-01T00:27:14;11.30;99.90
9837;DHT22;4957;51.412;6.724;2023-04-01T00:29:44;11.20;99.90
9837;DHT22;4957;51.412;6.724;2023-04-01T00:32:11;11.20;99.90
9837;DHT22;4957;51.412;6.724;2023-04-01T00:34:36;11.20;99.90
9837;DHT22;4957;51.412;6.724;2023-04-01T00:37:03;11.20;99.90
9837;DHT22;4957;51.412;6.724;2023-04-01T00:39:30;11.30;99.90
9837;DHT22;4957;51.412;6.724;2023-04-01T00:41:57;11.20;99.90
9837;DHT22;4957;51.412;6.724;2023-04-01T00:44:28;11.20;99.90
9837;DHT22;4957;51.412;6.724;2023-04-01T00:46:54;11.20;99.90
9837;DHT22;4957;51.412;6.724;2023-04-01T00:49:25;11.20;99.90
9837;DHT22;4957;51.412;6.724;2023-04-01T00:51:55;11.20;99.90
9837;DHT22;4957;51.412;6.724;2023-04-01T00:54:23;11.20;99.90
9837;DHT22;4957;51.412;6.724;2023-04-01T00:59:25;11.30;99.90
9837;DHT22;4957;51.412;6.724;2023-04-01T01:01:51;11.20;99.90
9837;DHT22;4957;51.412;6.724;2023-04-01T01:04:36;11.30;99.90
9837;DHT22;4957;51.412;6.724;2023-04-01T01:10:20;11.20;99.90
9837;DHT22;4957;51.412;6.724;2023-04-01T01:12:44;11.20;99.90
9837;DHT22;4957;51.412;6.724;2023-04-01T01:15:56;11.20;99.90
9837;DHT22;4957;51.412;6.724;2023-04-01T01:20:38;11.20;99.90
9837;DHT22;4957;51.412;6.724;2023-04-01T01:35:16;11.20;99.90
9837;DHT22;4957;51.412;6.724;2023-04-01T01:37:46;11.20;99.90
9837;DHT22;4957;51.412;6.724;2023-04-01T01:40:13;11.10;99.90
9837;DHT22;4957;51.412;6.724;2023-04-01T01:42:47;11.20;99.90
9837;DHT22;4957;51.412;6.724;2023-04-01T01:45:16;11.10;99.90
9837;DHT22;4957;51.412;6.724;2023-04-01T01:47:51;11.10;99.90
9837;DHT22;4957;51.412;6.724;2023-04-01T01:50:18;11.10;99.90
9837;DHT22;4957;51.412;6.724;2023-04-01T01:52:45;11.10;99.90
9837;DHT22;4957;51.412;6.724;2023-04-01T01:55:33;11.10;99.90
9837;DHT22;4957;51.412;6.724;2023-04-01T01:58:04;11.10;99.90
9837;DHT22;4957;51.412;6.724;2023-04-01T02:00:33;11.10;99.90
9837;DHT22;4957;51.412;6.724;2023-04-01T02:02:59;11.10;99.90
9837;DHT22;4957;51.412;6.724;2023-04-01T02:05:26;11.10;99.90
9837;DHT22;4957;51.412;6.724;2023-04-01T02:08:02;11.10;99.90
9837;DHT22;4957;51.412;6.724;2023-04-01T02:10:34;11.10;99.90
9837;DHT22;4957;51.412;6.724;2023-04-01T02:13:05;11.20;99.90
9837;DHT22;4957;51.412;6.724;2023-04-01T02:15:36;11.20;99.90
9837;DHT22;4957;51.412;6.724;2023-04-01T02:18:03;11.20;99.90
9837;DHT22;4957;51.412;6.724;2023-04-01T02:20:30;11.20;99.90
9837;DHT22;4957;51.412;6.724;2023-04-01T02:22:58;11.20;99.90
9837;DHT22;4957;51.412;6.724;2023-04-01T02:25:30;11.20;99.90
9837;DHT22;4957;51.412;6.724;2023-04-01T02:28:00;11.20;99.90
9837;DHT22;4957;51.412;6.724;2023-04-01T02:30:29;11.20;99.90
9837;DHT22;4957;51.412;6.724;2023-04-01T02:32:57;11.20;99.90
9837;DHT22;4957;51.412;6.724;2023-04-01T02:35:25;11.20;99.90
9837;DHT22;4957;51.412;6.724;2023-04-01T02:37:52;11.30;99.90
9837;DHT22;4957;51.412;6.724;2023-04-01T02:40:18;11.20;99.90
9837;DHT22;4957;51.412;6.724;2023-04-01T02:42:44;11.20;99.90
9837;DHT22;4957;51.412;6.724;2023-04-01T02:45:11;11.20;99.90
9837;DHT22;4957;51.412;6.724;2023-04-01T02:47:37;11.20;99.90
9837;DHT22;4957;51.412;6.724;2023-04-01T02:50:03;11.20;99.90
9837;DHT22;4957;51.412;6.724;2023-04-01T02:52:29;11.20;99.90
9837;DHT22;4957;51.412;6.724;2023-04-01T02:54:55;11.20;99.90
9837;DHT22;4957;51.412;6.724;2023-04-01T02:57:22;11.20;99.90
9837;DHT22;4957;51.412;6.724;2023-04-01T02:59:48;11.20;99.90
9837;DHT22;4957;51.412;6.724;2023-04-01T03:02:14;11.20;99.90
9837;DHT22;4957;51.412;6.724;2023-04-01T03:04:40;11.20;99.90
9837;DHT22;4957;51.412;6.724;2023-04-01T03:07:06;11.20;99.90
9837;DHT22;4957;51.412;6.724;2023-04-01T03:09:32;11.20;99.90
9837;DHT22;4957;51.412;6.724;2023-04-01T03:11:57;11.20;99.90
9837;DHT22;4957;51.412;6.724;2023-04-01T03:14:23;11.20;99.90
9837;DHT22;4957;51.412;6.724;2023-04-01T03:16:49;11.20;99.90
9837;DHT22;4957;51.412;6.724;2023-04-01T03:19:15;11.20;99.90
9837;DHT22;4957;51.412;6.724;2023-04-01T03:21:41;11.10;99.90
9837;DHT22;4957;51.412;6.724;2023-04-01T03:24:06;11.10;99.90
9837;DHT22;4957;51.412;6.724;2023-04-01T03:26:33;11.20;99.90
9837;DHT22;4957;51.412;6.724;2023-04-01T03:28:59;11.20;99.90
9837;DHT22;4957;51.412;6.724;2023-04-01T03:31:25;11.20;99.90
9837;DHT22;4957;51.412;6.724;2023-04-01T03:33:51;11.10;99.90
9837;DHT22;4957;51.412;6.724;2023-04-01T03:36:17;11.20;99.90
9837;DHT22;4957;51.412;6.724;2023-04-01T03:38:44;11.20;99.90
9837;DHT22;4957;51.412;6.724;2023-04-01T03:41:17;11.20;99.90
9837;DHT22;4957;51.412;6.724;2023-04-01T03:43:43;11.20;99.90
9837;DHT22;4957;51.412;6.724;2023-04-01T03:46:09;11.20;99.90
9837;DHT22;4957;51.412;6.724;2023-04-01T03:48:35;11.20;99.90
9837;DHT22;4957;51.412;6.724;2023-04-01T03:51:01;11.20;99.90
9837;DHT22;4957;51.412;6.724;2023-04-01T03:53:27;11.20;99.90
9837;DHT22;4957;51.412;6.724;2023-04-01T03:55:53;11.20;99.90
9837;DHT22;4957;51.412;6.724;2023-04-01T03:58:19;11.20;99.90
9837;DHT22;4957;51.412;6.724;2023-04-01T04:00:45;11.20;99.90
9837;DHT22;4957;51.412;6.724;2023-04-01T04:03:10;11.20;99.90
9837;DHT22;4957;51.412;6.724;2023-04-01T04:05:36;11.10;99.90
9837;DHT22;4957;51.412;6.724;2023-04-01T04:08:02;11.20;99.90
9837;DHT22;4957;51.412;6.724;2023-04-01T04:10:28;11.10;99.90
9837;DHT22;4957;51.412;6.724;2023-04-01T04:12:55;11.10;99.90
9837;DHT22;4957;51.412;6.724;2023-04-01T04:15:21;11.10;99.90
9837;DHT22;4957;51.412;6.724;2023-04-01T04:17:47;11.10;99.90
9837;DHT22;4957;51.412;6.724;2023-04-01T04:20:13;11.10;99.90
9837;DHT22;4957;51.412;6.724;2023-04-01T04:22:40;11.10;99.90
9837;DHT22;4957;51.412;6.724;2023-04-01T04:25:06;11.10;99.90
9837;DHT22;4957;51.412;6.724;2023-04-01T04:27:33;11.10;99.90
9837;DHT22;4957;51.412;6.724;2023-04-01T04:29:58;11.10;99.90
9837;DHT22;4957;51.412;6.724;2023-04-01T04:32:24;11.10;99.90
9837;DHT22;4957;51.412;6.724;2023-04-01T04:34:50;11.10;99.90
9837;DHT22;4957;51.412;6.724;2023-04-01T04:37:16;11.10;99.90
9837;DHT22;4957;51.412;6.724;2023-04-01T04:39:41;11.10;99.90
9837;DHT22;4957;51.412;6.724;2023-04-01T04:42:07;11.10;99.90
9837;DHT22;4957;51.412;6.724;2023-04-01T04:44:32;11.10;99.90
9837;DHT22;4957;51.412;6.724;2023-04-01T04:46:58;11.10;99.90
9837;DHT22;4957;51.412;6.724;2023-04-01T04:49:24;11.10;99.90
9837;DHT22;4957;51.412;6.724;2023-04-01T04:51:49;11.10;99.90
9837;DHT22;4957;51.412;6.724;2023-04-01T04:54:15;11.10;99.90
9837;DHT22;4957;51.412;6.724;2023-04-01T04:56:41;11.10;99.90
9837;DHT22;4957;51.412;6.724;2023-04-01T04:59:07;11.10;99.90
9837;DHT22;4957;51.412;6.724;2023-04-01T05:01:33;11.10;99.90
9837;DHT22;4957;51.412;6.724;2023-04-01T05:03:59;11.10;99.90
9837;DHT22;4957;51.412;6.724;2023-04-01T05:06:25;11.10;99.90
9837;DHT22;4957;51.412;6.724;2023-04-01T05:08:51;11.10;99.90
9837;DHT22;4957;51.412;6.724;2023-04-01T05:11:18;11.10;99.90
9837;DHT22;4957;51.412;6.724;2023-04-01T05:13:45;11.10;99.90
9837;DHT22;4957;51.412;6.724;2023-04-01T05:16:16;11.10;99.90
9837;DHT22;4957;51.412;6.724;2023-04-01T05:18:43;11.10;99.90
9837;DHT22;4957;51.412;6.724;2023-04-01T05:21:10;11.10;99.90
9837;DHT22;4957;51.412;6.724;2023-04-01T05:23:36;11.10;99.90
9837;DHT22;4957;51.412;6.724;2023-04-01T05:26:07;11.10;99.90
9837;DHT22;4957;51.412;6.724;2023-04-01T05:28:34;11.10;99.90
9837;DHT22;4957;51.412;6.724;2023-04-01T05:31:01;11.10;99.90
9837;DHT22;4957;51.412;6.724;2023-04-01T05:33:28;11.10;99.90
9837;DHT22;4957;51.412;6.724;2023-04-01T05:35:54;11.10;99.90
9837;DHT22;4957;51.412;6.724;2023-04-01T05:38:20;11.10;99.90
9837;DHT22;4957;51.412;6.724;2023-04-01T05:40:46;11.10;99.90
9837;DHT22;4957;51.412;6.724;2023-04-01T05:43:12;11.10;99.90
9837;DHT22;4957;51.412;6.724;2023-04-01T05:45:38;11.10;99.90
9837;DHT22;4957;51.412;6.724;2023-04-01T05:48:04;11.10;99.90
9837;DHT22;4957;51.412;6.724;2023-04-01T05:50:31;11.10;99.90
9837;DHT22;4957;51.412;6.724;2023-04-01T05:52:57;11.10;99.90
9837;DHT22;4957;51.412;6.724;2023-04-01T05:55:23;11.10;99.90
9837;DHT22;4957;51.412;6.724;2023-04-01T05:57:48;11.10;99.90
9837;DHT22;4957;51.412;6.724;2023-04-01T06:00:16;11.10;99.90
9837;DHT22;4957;51.412;6.724;2023-04-01T06:02:41;11.10;99.90
9837;DHT22;4957;51.412;6.724;2023-04-01T06:05:27;11.10;99.90
9837;DHT22;4957;51.412;6.724;2023-04-01T06:07:59;11.10;99.90
9837;DHT22;4957;51.412;6.724;2023-04-01T06:13:45;11.10;99.90
9837;DHT22;4957;51.412;6.724;2023-04-01T06:26:05;11.10;99.90
9837;DHT22;4957;51.412;6.724;2023-04-01T06:28:50;11.10;99.90
9837;DHT22;4957;51.412;6.724;2023-04-01T06:31:37;11.10;99.90
9837;DHT22;4957;51.412;6.724;2023-04-01T06:40:17;11.20;99.90
9837;DHT22;4957;51.412;6.724;2023-04-01T06:48:54;11.20;99.90
9837;DHT22;4957;51.412;6.724;2023-04-01T06:51:31;11.20;99.90
9837;DHT22;4957;51.412;6.724;2023-04-01T06:54:10;11.20;99.90
9837;DHT22;4957;51.412;6.724;2023-04-01T06:56:40;11.20;99.90
9837;DHT22;4957;51.412;6.724;2023-04-01T06:59:35;11.20;99.90
9837;DHT22;4957;51.412;6.724;2023-04-01T07:04:40;11.20;99.90
9837;DHT22;4957;51.412;6.724;2023-04-01T07:07:14;11.20;99.90
9837;DHT22;4957;51.412;6.724;2023-04-01T07:09:45;11.30;99.90
9837;DHT22;4957;51.412;6.724;2023-04-01T07:15:26;11.30;99.90
9837;DHT22;4957;51.412;6.724;2023-04-01T07:17:58;11.30;99.90
9837;DHT22;4957;51.412;6.724;2023-04-01T07:20:30;11.30;99.90
9837;DHT22;4957;51.412;6.724;2023-04-01T07:23:03;11.30;99.90
9837;DHT22;4957;51.412;6.724;2023-04-01T07:25:39;11.30;99.90
9837;DHT22;4957;51.412;6.724;2023-04-01T07:28:13;11.30;99.90
9837;DHT22;4957;51.412;6.724;2023-04-01T07:31:42;11.30;99.90
9837;DHT22;4957;51.412;6.724;2023-04-01T07:34:12;11.40;99.90
9837;DHT22;4957;51.412;6.724;2023-04-01T07:36:51;11.30;99.90
9837;DHT22;4957;51.412;6.724;2023-04-01T07:42:09;11.40;99.90
9837;DHT22;4957;51.412;6.724;2023-04-01T07:50:44;11.40;99.90
9837;DHT22;4957;51.412;6.724;2023-04-01T07:53:21;11.40;99.90
9837;DHT22;4957;51.412;6.724;2023-04-01T07:56:12;11.40;99.90
9837;DHT22;4957;51.412;6.724;2023-04-01T08:07:08;11.50;99.90
9837;DHT22;4957;51.412;6.724;2023-04-01T08:09:55;11.50;99.90
9837;DHT22;4957;51.412;6.724;2023-04-01T08:12:48;11.50;99.90
9837;DHT22;4957;51.412;6.724;2023-04-01T08:18:44;11.50;99.90
9837;DHT22;4957;51.412;6.724;2023-04-01T08:21:18;11.60;99.90
9837;DHT22;4957;51.412;6.724;2023-04-01T08:23:52;11.60;99.90
9837;DHT22;4957;51.412;6.724;2023-04-01T08:29:20;11.60;99.90
9837;DHT22;4957;51.412;6.724;2023-04-01T08:34:26;11.70;99.90
9837;DHT22;4957;51.412;6.724;2023-04-01T08:37:00;11.70;99.90
9837;DHT22;4957;51.412;6.724;2023-04-01T08:39:34;11.70;99.90
9837;DHT22;4957;51.412;6.724;2023-04-01T08:48:19;11.70;99.90
9837;DHT22;4957;51.412;6.724;2023-04-01T08:58:58;11.80;99.90
9837;DHT22;4957;51.412;6.724;2023-04-01T09:07:54;11.80;99.90
9837;DHT22;4957;51.412;6.724;2023-04-01T09:10:32;11.80;99.90
9837;DHT22;4957;51.412;6.724;2023-04-01T09:19:28;11.90;99.90
9837;DHT22;4957;51.412;6.724;2023-04-01T09:25:12;11.90;99.90
9837;DHT22;4957;51.412;6.724;2023-04-01T09:33:31;12.00;99.90
9837;DHT22;4957;51.412;6.724;2023-04-01T09:36:12;12.00;99.90
9837;DHT22;4957;51.412;6.724;2023-04-01T09:42:23;12.10;99.90
9837;DHT22;4957;51.412;6.724;2023-04-01T09:45:00;12.10;99.90
9837;DHT22;4957;51.412;6.724;2023-04-01T09:50:42;12.10;99.90
9837;DHT22;4957;51.412;6.724;2023-04-01T09:53:27;12.20;99.90
9837;DHT22;4957;51.412;6.724;2023-04-01T09:56:19;12.20;99.90
9837;DHT22;4957;51.412;6.724;2023-04-01T09:59:00;12.20;99.90
9837;DHT22;4957;51.412;6.724;2023-04-01T10:23:42;12.40;99.90
9837;DHT22;4957;51.412;6.724;2023-04-01T10:29:39;12.50;99.90
9837;DHT22;4957;51.412;6.724;2023-04-01T10:49:21;12.70;99.90
9837;DHT22;4957;51.412;6.724;2023-04-01T11:39:33;12.80;99.90
9837;DHT22;4957;51.412;6.724;2023-04-01T11:42:24;12.80;99.90
9837;DHT22;4957;51.412;6.724;2023-04-01T11:44:58;12.80;99.90
9837;DHT22;4957;51.412;6.724;2023-04-01T11:47:57;12.80;99.90
9837;DHT22;4957;51.412;6.724;2023-04-01T12:06:54;12.80;99.90
9837;DHT22;4957;51.412;6.724;2023-04-01T12:09:58;12.80;99.90
9837;DHT22;4957;51.412;6.724;2023-04-01T12:12:35;12.80;99.90
9837;DHT22;4957;51.412;6.724;2023-04-01T12:15:27;12.80;99.90
9837;DHT22;4957;51.412;6.724;2023-04-01T12:18:25;12.80;99.90
9837;DHT22;4957;51.412;6.724;2023-04-01T12:21:11;12.80;99.90
9837;DHT22;4957;51.412;6.724;2023-04-01T12:24:19;12.80;99.90
9837;DHT22;4957;51.412;6.724;2023-04-01T12:32:56;12.90;99.90
9837;DHT22;4957;51.412;6.724;2023-04-01T12:44:00;13.10;99.90
9837;DHT22;4957;51.412;6.724;2023-04-01T12:49:41;13.20;99.90
9837;DHT22;4957;51.412;6.724;2023-04-01T12:52:42;13.20;99.90
9837;DHT22;4957;51.412;6.724;2023-04-01T13:06:49;13.30;99.90
9837;DHT22;4957;51.412;6.724;2023-04-01T13:17:50;13.20;99.90
9837;DHT22;4957;51.412;6.724;2023-04-01T13:20:34;13.20;99.90
9837;DHT22;4957;51.412;6.724;2023-04-01T13:23:44;13.20;99.90
9837;DHT22;4957;51.412;6.724;2023-04-01T13:26:20;13.20;99.90
9837;DHT22;4957;51.412;6.724;2023-04-01T13:28:59;13.20;99.90
9837;DHT22;4957;51.412;6.724;2023-04-01T13:31:33;13.20;99.90
9837;DHT22;4957;51.412;6.724;2023-04-01T13:34:08;13.20;99.90
9837;DHT22;4957;51.412;6.724;2023-04-01T13:37:09;13.10;99.90
9837;DHT22;4957;51.412;6.724;2023-04-01T13:45:34;13.10;99.90
9837;DHT22;4957;51.412;6.724;2023-04-01T13:54:20;13.10;99.90
9837;DHT22;4957;51.412;6.724;2023-04-01T13:56:50;13.00;99.90
9837;DHT22;4957;51.412;6.724;2023-04-01T14:05:23;13.00;99.90
9837;DHT22;4957;51.412;6.724;2023-04-01T14:16:11;13.00;99.90
9837;DHT22;4957;51.412;6.724;2023-04-01T14:19:20;12.90;99.90
9837;DHT22;4957;51.412;6.724;2023-04-01T14:38:19;12.90;99.90
9837;DHT22;4957;51.412;6.724;2023-04-01T14:46:46;12.90;99.90
9837;DHT22;4957;51.412;6.724;2023-04-01T14:52:05;12.90;99.90
9837;DHT22;4957;51.412;6.724;2023-04-01T14:54:41;12.90;99.90
9837;DHT22;4957;51.412;6.724;2023-04-01T14:57:43;12.90;99.90
9837;DHT22;4957;51.412;6.724;2023-04-01T15:00:22;12.90;99.90
9837;DHT22;4957;51.412;6.724;2023-04-01T15:05:35;12.90;99.90
9837;DHT22;4957;51.412;6.724;2023-04-01T15:14:01;12.80;99.90
9837;DHT22;4957;51.412;6.724;2023-04-01T15:17:00;12.90;99.90
9837;DHT22;4957;51.412;6.724;2023-04-01T15:19:39;12.80;99.90
9837;DHT22;4957;51.412;6.724;2023-04-01T15:24:56;12.80;99.90
9837;DHT22;4957;51.412;6.724;2023-04-01T15:27:33;12.80;99.90
9837;DHT22;4957;51.412;6.724;2023-04-01T15:30:12;12.80;99.90
9837;DHT22;4957;51.412;6.724;2023-04-01T15:40:54;12.70;99.90
9837;DHT22;4957;51.412;6.724;2023-04-01T15:43:40;12.70;99.90
9837;DHT22;4957;51.412;6.724;2023-04-01T15:46:26;12.70;99.90
9837;DHT22;4957;51.412;6.724;2023-04-01T15:49:11;12.70;99.90
9837;DHT22;4957;51.412;6.724;2023-04-01T16:02:29;12.70;99.90
9837;DHT22;4957;51.412;6.724;2023-04-01T16:05:37;12.70;99.90
9837;DHT22;4957;51.412;6.724;2023-04-01T16:08:37;12.80;99.90
9837;DHT22;4957;51.412;6.724;2023-04-01T16:11:17;12.80;99.90
9837;DHT22;4957;51.412;6.724;2023-04-01T16:21:57;12.90;99.90
9837;DHT22;4957;51.412;6.724;2023-04-01T16:24:45;12.90;99.90
9837;DHT22;4957;51.412;6.724;2023-04-01T16:29:56;13.00;99.90
9837;DHT22;4957;51.412;6.724;2023-04-01T16:32:53;12.90;99.90
9837;DHT22;4957;51.412;6.724;2023-04-01T16:38:46;12.90;99.90
9837;DHT22;4957;51.412;6.724;2023-04-01T16:46:27;13.00;99.90
9837;DHT22;4957;51.412;6.724;2023-04-01T16:54:35;12.90;99.90
9837;DHT22;4957;51.412;6.724;2023-04-01T16:59:58;12.90;99.90
9837;DHT22;4957;51.412;6.724;2023-04-01T17:02:38;12.90;99.90
9837;DHT22;4957;51.412;6.724;2023-04-01T17:05:11;12.90;99.90
9837;DHT22;4957;51.412;6.724;2023-04-01T17:10:51;12.90;99.90
9837;DHT22;4957;51.412;6.724;2023-04-01T17:13:40;12.90;99.90
9837;DHT22;4957;51.412;6.724;2023-04-01T17:16:26;12.80;99.90
9837;DHT22;4957;51.412;6.724;2023-04-01T17:21:49;12.80;99.90
9837;DHT22;4957;51.412;6.724;2023-04-01T17:24:29;12.80;99.90
9837;DHT22;4957;51.412;6.724;2023-04-01T17:27:04;12.80;99.90
9837;DHT22;4957;51.412;6.724;2023-04-01T17:30:03;12.80;99.90
9837;DHT22;4957;51.412;6.724;2023-04-01T17:33:02;12.80;99.90
9837;DHT22;4957;51.412;6.724;2023-04-01T17:35:33;12.80;99.90
9837;DHT22;4957;51.412;6.724;2023-04-01T17:38:08;12.70;99.90
9837;DHT22;4957;51.412;6.724;2023-04-01T17:53:43;12.70;99.90
9837;DHT22;4957;51.412;6.724;2023-04-01T17:56:21;12.70;99.90
9837;DHT22;4957;51.412;6.724;2023-04-01T18:15:21;12.60;99.90
9837;DHT22;4957;51.412;6.724;2023-04-01T18:20:57;12.60;99.90
9837;DHT22;4957;51.412;6.724;2023-04-01T18:26:09;12.60;99.90
9837;DHT22;4957;51.412;6.724;2023-04-01T18:28:52;12.60;99.90
9837;DHT22;4957;51.412;6.724;2023-04-01T18:31:23;12.60;99.90
9837;DHT22;4957;51.412;6.724;2023-04-01T18:42:03;12.50;99.90
9837;DHT22;4957;51.412;6.724;2023-04-01T18:47:50;12.50;99.90
9837;DHT22;4957;51.412;6.724;2023-04-01T18:53:17;12.50;99.90
9837;DHT22;4957;51.412;6.724;2023-04-01T18:55:54;12.50;99.90
9837;DHT22;4957;51.412;6.724;2023-04-01T18:58:26;12.50;99.90
9837;DHT22;4957;51.412;6.724;2023-04-01T19:06:52;12.40;99.90
9837;DHT22;4957;51.412;6.724;2023-04-01T19:09:30;12.30;99.90
9837;DHT22;4957;51.412;6.724;2023-04-01T19:14:53;12.30;99.90
9837;DHT22;4957;51.412;6.724;2023-04-01T19:23:09;12.30;99.90
9837;DHT22;4957;51.412;6.724;2023-04-01T19:29:00;12.20;99.90
9837;DHT22;4957;51.412;6.724;2023-04-01T19:37:02;12.20;99.90
9837;DHT22;4957;51.412;6.724;2023-04-01T19:40:02;12.20;99.90
9837;DHT22;4957;51.412;6.724;2023-04-01T19:42:55;12.20;99.90
9837;DHT22;4957;51.412;6.724;2023-04-01T19:51:04;12.10;99.90
9837;DHT22;4957;51.412;6.724;2023-04-01T19:53:43;12.10;99.90
9837;DHT22;4957;51.412;6.724;2023-04-01T19:56:18;12.10;99.90
9837;DHT22;4957;51.412;6.724;2023-04-01T19:59:03;12.10;99.90
9837;DHT22;4957;51.412;6.724;2023-04-01T20:04:26;12.10;99.90
9837;DHT22;4957;51.412;6.724;2023-04-01T20:15:43;12.00;99.90
9837;DHT22;4957;51.412;6.724;2023-04-01T20:20:39;12.00;99.90
9837;DHT22;4957;51.412;6.724;2023-04-01T20:23:43;11.90;99.90
9837;DHT22;4957;51.412;6.724;2023-04-01T20:26:14;11.90;99.90
9837;DHT22;4957;51.412;6.724;2023-04-01T20:29:17;11.90;99.90
9837;DHT22;4957;51.412;6.724;2023-04-01T20:40:37;11.80;99.90
9837;DHT22;4957;51.412;6.724;2023-04-01T20:51:15;11.80;99.90
9837;DHT22;4957;51.412;6.724;2023-04-01T20:59:55;11.70;99.90
9837;DHT22;4957;51.412;6.724;2023-04-01T21:02:38;11.70;99.90
9837;DHT22;4957;51.412;6.724;2023-04-01T21:08:17;11.70;99.90
9837;DHT22;4957;51.412;6.724;2023-04-01T21:13:56;11.60;99.90
9837;DHT22;4957;51.412;6.724;2023-04-01T21:19:22;11.60;99.90
9837;DHT22;4957;51.412;6.724;2023-04-01T21:27:22;11.50;99.90
9837;DHT22;4957;51.412;6.724;2023-04-01T21:30:01;11.50;99.90
9837;DHT22;4957;51.412;6.724;2023-04-01T21:33:07;11.40;99.90
9837;DHT22;4957;51.412;6.724;2023-04-01T21:40:49;11.40;99.90
9837;DHT22;4957;51.412;6.724;2023-04-01T21:58:00;11.20;99.90
9837;DHT22;4957;51.412;6.724;2023-04-01T22:06:55;11.20;99.90
9837;DHT22;4957;51.412;6.724;2023-04-01T22:16:58;11.10;99.90
9837;DHT22;4957;51.412;6.724;2023-04-01T22:19:40;11.10;99.90
9837;DHT22;4957;51.412;6.724;2023-04-01T22:22:49;11.10;99.90
9837;DHT22;4957;51.412;6.724;2023-04-01T22:30:52;11.00;99.90
9837;DHT22;4957;51.412;6.724;2023-04-01T22:41:42;10.90;99.90
9837;DHT22;4957;51.412;6.724;2023-04-01T22:47:08;10.80;99.90
9837;DHT22;4957;51.412;6.724;2023-04-01T22:49:47;10.80;99.90
9837;DHT22;4957;51.412;6.724;2023-04-01T22:52:39;10.80;99.90
9837;DHT22;4957;51.412;6.724;2023-04-01T22:55:27;10.80;99.90
9837;DHT22;4957;51.412;6.724;2023-04-01T22:57:59;10.80;99.90
9837;DHT22;4957;51.412;6.724;2023-04-01T23:03:32;10.70;99.90
9837;DHT22;4957;51.412;6.724;2023-04-01T23:06:01;10.70;99.90
9837;DHT22;4957;51.412;6.724;2023-04-01T23:08:57;10.70;99.90
9837;DHT22;4957;51.412;6.724;2023-04-01T23:11:27;10.70;99.90
9837;DHT22;4957;51.412;6.724;2023-04-01T23:16:47;10.60;99.90
9837;DHT22;4957;51.412;6.724;2023-04-01T23:19:21;10.60;99.90
9837;DHT22;4957;51.412;6.724;2023-04-01T23:22:41;10.60;99.90
9837;DHT22;4957;51.412;6.724;2023-04-01T23:27:47;10.60;99.90
9837;DHT22;4957;51.412;6.724;2023-04-01T23:38:49;10.50;99.90
9837;DHT22;4957;51.412;6.724;2023-04-01T23:41:23;10.50;99.90
9837;DHT22;4957;51.412;6.724;2023-04-01T23:46:23;10.40;99.90
9837;DHT22;4957;51.412;6.724;2023-04-01T23:48:50;10.40;99.90
9837;DHT22;4957;51.412;6.724;2023-04-01T23:51:28;10.40;99.90
9837;DHT22;4957;51.412;6.724;2023-04-01T23:54:15;10.30;99.90
9837;DHT22;4957;51.412;6.724;2023-04-01T23:56:48;10.40;99.90
9837;DHT22;4957;51.412;6.724;2023-04-01T23:59:17;10.30;99.90
